createdAt,value
2018-05-07T00:00:54.620Z,1.83
2018-05-07T00:03:21.513Z,2.23
2018-05-07T00:05:48.459Z,2.50
2018-05-07T00:08:15.695Z,2.07
2018-05-07T00:10:42.540Z,2.33
2018-05-07T00:13:09.413Z,2.37
2018-05-07T00:15:36.289Z,1.97
2018-05-07T00:18:03.088Z,2.20
2018-05-07T00:20:30.968Z,2.20
2018-05-07T00:22:57.746Z,2.40
2018-05-07T00:25:24.620Z,2.27
2018-05-07T00:27:51.457Z,2.77
2018-05-07T00:30:18.298Z,1.90
2018-05-07T00:32:45.179Z,2.00
2018-05-07T00:35:12.020Z,2.17
2018-05-07T00:37:38.917Z,2.30
2018-05-07T00:40:05.796Z,2.57
2018-05-07T00:42:32.620Z,1.90
2018-05-07T00:44:59.466Z,2.50
2018-05-07T00:47:26.410Z,2.13
2018-05-07T00:49:53.255Z,1.73
2018-05-07T00:52:20.230Z,1.87
2018-05-07T00:57:45.074Z,2.30
2018-05-07T01:00:11.966Z,2.40
2018-05-07T01:02:38.814Z,2.40
2018-05-07T01:05:05.772Z,2.03
2018-05-07T01:07:32.701Z,2.37
2018-05-07T01:09:59.663Z,2.23
2018-05-07T01:12:26.505Z,1.83
2018-05-07T01:14:53.768Z,2.73
2018-05-07T01:17:21.020Z,2.07
2018-05-07T01:19:48.339Z,2.20
2018-05-07T01:22:15.284Z,2.33
2018-05-07T01:24:42.242Z,2.07
2018-05-07T01:27:09.101Z,1.80
2018-05-07T01:29:35.957Z,2.10
2018-05-07T01:32:02.818Z,1.90
2018-05-07T01:34:29.686Z,2.40
2018-05-07T01:36:56.609Z,1.90
2018-05-07T01:39:23.902Z,1.73
2018-05-07T01:41:50.856Z,2.43
2018-05-07T01:44:17.706Z,2.20
2018-05-07T01:46:44.583Z,2.13
2018-05-07T01:49:11.440Z,2.73
2018-05-07T01:51:38.329Z,2.60
2018-05-07T01:54:05.167Z,2.30
2018-05-07T01:56:32.111Z,1.67
2018-05-07T01:58:59.001Z,1.50
2018-05-07T02:01:25.922Z,2.20
2018-05-07T02:03:52.895Z,2.47
2018-05-07T02:06:19.737Z,2.30
2018-05-07T02:08:46.713Z,1.90
2018-05-07T02:11:13.659Z,2.20
2018-05-07T02:13:40.645Z,2.20
2018-05-07T02:16:07.494Z,2.27
2018-05-07T02:18:34.358Z,2.70
2018-05-07T02:21:01.223Z,1.83
2018-05-07T02:23:28.146Z,2.10
2018-05-07T02:25:54.990Z,2.10
2018-05-07T02:28:21.870Z,2.30
2018-05-07T02:30:48.744Z,3.00
2018-05-07T02:33:15.584Z,2.60
2018-05-07T02:35:42.447Z,2.20
2018-05-07T02:38:09.296Z,2.33
2018-05-07T02:40:36.140Z,1.90
2018-05-07T02:43:03.095Z,2.40
2018-05-07T02:45:29.927Z,2.70
2018-05-07T02:47:57.279Z,2.20
2018-05-07T02:50:24.308Z,2.90
2018-05-07T02:52:51.235Z,1.93
2018-05-07T02:55:18.140Z,1.97
2018-05-07T02:57:45.033Z,2.30
2018-05-07T03:00:12.283Z,2.33
2018-05-07T03:02:39.527Z,1.90
2018-05-07T03:05:06.443Z,2.20
2018-05-07T03:07:33.507Z,2.20
2018-05-07T03:10:00.352Z,2.70
2018-05-07T03:12:27.234Z,2.20
2018-05-07T03:14:54.111Z,2.20
2018-05-07T03:17:20.989Z,2.20
2018-05-07T03:19:47.941Z,2.00
2018-05-07T03:22:14.853Z,2.40
2018-05-07T03:24:41.807Z,2.30
2018-05-07T03:27:09.038Z,2.13
2018-05-07T03:29:35.930Z,1.60
2018-05-07T03:32:02.782Z,2.20
2018-05-07T03:34:29.677Z,2.30
2018-05-07T03:36:56.618Z,2.40
2018-05-07T03:39:23.507Z,1.90
2018-05-07T03:41:50.430Z,2.43
2018-05-07T03:44:17.283Z,2.67
2018-05-07T03:46:44.147Z,2.30
2018-05-07T03:49:10.985Z,1.83
2018-05-07T03:51:37.853Z,2.57
2018-05-07T03:54:04.707Z,2.07
2018-05-07T03:56:31.567Z,2.27
2018-05-07T03:58:58.428Z,2.60
2018-05-07T04:01:25.719Z,2.50
2018-05-07T04:03:52.684Z,2.40
2018-05-07T04:06:19.526Z,2.37
2018-05-07T04:08:46.400Z,2.10
2018-05-07T04:11:13.248Z,2.40
2018-05-07T04:13:40.102Z,2.30
2018-05-07T04:16:06.935Z,2.10
2018-05-07T04:18:45.855Z,2.43
2018-05-07T04:21:14.676Z,2.03
2018-05-07T04:23:53.474Z,2.53
2018-05-07T04:26:20.319Z,2.20
2018-05-07T04:28:47.182Z,1.80
2018-05-07T04:31:14.439Z,1.90
2018-05-07T04:33:41.362Z,2.10
2018-05-07T04:36:08.217Z,2.27
2018-05-07T04:38:35.076Z,2.47
2018-05-07T04:41:01.921Z,2.30
2018-05-07T04:43:28.767Z,2.87
2018-05-07T04:45:56.033Z,2.13
2018-05-07T04:48:23.269Z,2.40
2018-05-07T04:50:50.278Z,2.67
2018-05-07T04:53:17.502Z,2.10
2018-05-07T04:55:44.348Z,2.10
2018-05-07T04:58:11.276Z,2.57
2018-05-07T05:00:38.115Z,2.03
2018-05-07T05:03:04.991Z,2.17
2018-05-07T05:05:31.851Z,2.30
2018-05-07T05:07:58.795Z,2.50
2018-05-07T05:10:25.645Z,2.70
2018-05-07T05:12:52.626Z,2.47
2018-05-07T05:15:19.487Z,2.40
2018-05-07T05:17:46.443Z,2.00
2018-05-07T05:20:13.285Z,2.00
2018-05-07T05:22:40.343Z,2.05
2018-05-07T05:25:07.181Z,2.63
2018-05-07T05:27:34.468Z,2.60
2018-05-07T05:30:01.329Z,2.27
2018-05-07T05:32:28.219Z,2.33
2018-05-07T05:34:55.071Z,1.90
2018-05-07T05:37:22.137Z,2.20
2018-05-07T05:39:49.330Z,2.10
2018-05-07T05:42:16.225Z,2.30
2018-05-07T05:44:43.087Z,2.40
2018-05-07T05:47:09.950Z,2.43
2018-05-07T05:49:36.915Z,2.23
2018-05-07T05:52:03.744Z,2.20
2018-05-07T05:54:31.036Z,2.83
2018-05-07T05:56:57.891Z,2.30
2018-05-07T05:59:24.726Z,2.40
2018-05-07T06:01:51.724Z,2.30
2018-05-07T06:04:18.598Z,2.10
2018-05-07T06:06:45.468Z,2.60
2018-05-07T06:09:12.370Z,2.50
2018-05-07T06:11:39.244Z,2.73
2018-05-07T06:14:06.203Z,2.50
2018-05-07T06:16:33.066Z,2.70
2018-05-07T06:18:59.909Z,2.40
2018-05-07T06:21:26.772Z,2.60
2018-05-07T06:23:53.618Z,2.20
2018-05-07T06:26:20.587Z,2.60
2018-05-07T06:28:47.532Z,2.30
2018-05-07T06:31:14.755Z,2.30
2018-05-07T06:33:41.670Z,2.97
2018-05-07T06:36:08.510Z,2.63
2018-05-07T06:38:35.364Z,2.80
2018-05-07T06:41:02.598Z,2.80
2018-05-07T06:43:29.449Z,2.57
2018-05-07T06:45:56.309Z,2.33
2018-05-07T06:48:23.239Z,2.40
2018-05-07T06:50:50.089Z,2.80
2018-05-07T06:53:16.932Z,2.53
2018-05-07T06:55:43.807Z,2.57
2018-05-07T06:58:10.662Z,2.37
2018-05-07T07:00:37.505Z,2.40
2018-05-07T07:03:04.457Z,2.60
2018-05-07T07:05:31.303Z,3.00
2018-05-07T07:07:58.596Z,2.90
2018-05-07T07:10:25.446Z,2.30
2018-05-07T07:12:52.289Z,2.50
2018-05-07T07:15:19.564Z,2.67
2018-05-07T07:17:46.526Z,2.40
2018-05-07T07:20:13.403Z,2.87
2018-05-07T07:22:40.248Z,2.80
2018-05-07T07:25:07.095Z,3.20
2018-05-07T07:27:33.959Z,2.97
2018-05-07T07:30:00.824Z,2.73
2018-05-07T07:32:27.686Z,2.67
2018-05-07T07:34:54.588Z,2.80
2018-05-07T07:37:21.483Z,3.00
2018-05-07T07:39:48.313Z,3.50
2018-05-07T07:42:15.612Z,2.80
2018-05-07T07:44:42.568Z,2.90
2018-05-07T07:47:09.422Z,2.77
2018-05-07T07:49:36.678Z,3.10
2018-05-07T07:52:03.521Z,2.73
2018-05-07T07:54:30.806Z,2.83
2018-05-07T07:56:57.667Z,2.80
2018-05-07T07:59:24.673Z,3.00
2018-05-07T08:01:51.485Z,4.40
2018-05-07T08:04:18.337Z,3.10
2018-05-07T08:06:45.607Z,2.80
2018-05-07T08:09:12.439Z,2.60
2018-05-07T08:11:39.678Z,2.87
2018-05-07T08:14:06.593Z,3.50
2018-05-07T08:16:33.454Z,2.87
2018-05-07T08:19:00.323Z,2.87
2018-05-07T08:21:27.195Z,3.33
2018-05-07T08:23:54.144Z,2.90
2018-05-07T08:26:21.091Z,3.27
2018-05-07T08:28:47.945Z,3.10
2018-05-07T08:31:14.802Z,3.03
2018-05-07T08:33:41.648Z,3.10
2018-05-07T08:36:08.496Z,3.40
2018-05-07T08:38:35.726Z,3.10
2018-05-07T08:41:02.649Z,3.40
2018-05-07T08:43:29.522Z,3.00
2018-05-07T08:45:56.475Z,2.80
2018-05-07T08:48:23.318Z,2.97
2018-05-07T08:50:50.341Z,3.10
2018-05-07T08:53:17.317Z,2.80
2018-05-07T08:55:44.198Z,3.60
2018-05-07T08:58:11.090Z,3.23
2018-05-07T09:00:37.951Z,3.30
2018-05-07T09:03:04.796Z,4.17
2018-05-07T09:05:31.649Z,3.33
2018-05-07T09:07:58.507Z,3.93
2018-05-07T09:10:25.430Z,3.20
2018-05-07T09:12:52.711Z,2.80
2018-05-07T09:15:19.617Z,4.00
2018-05-07T09:17:46.512Z,2.77
2018-05-07T09:20:13.389Z,3.47
2018-05-07T09:22:40.251Z,2.97
2018-05-07T09:25:07.191Z,3.40
2018-05-07T09:27:34.032Z,2.77
2018-05-07T09:30:00.892Z,2.67
2018-05-07T09:32:27.736Z,3.40
2018-05-07T09:34:55.005Z,2.57
2018-05-07T09:37:21.910Z,3.83
2018-05-07T09:39:48.777Z,2.80
2018-05-07T09:42:15.708Z,2.90
2018-05-07T09:44:42.608Z,3.07
2018-05-07T09:47:09.456Z,2.57
2018-05-07T09:49:36.320Z,3.17
2018-05-07T09:52:03.182Z,2.90
2018-05-07T09:54:30.095Z,3.10
2018-05-07T09:56:57.075Z,2.60
2018-05-07T09:59:23.805Z,2.60
2018-05-07T10:01:50.651Z,2.50
2018-05-07T10:04:17.500Z,2.70
2018-05-07T10:06:44.349Z,2.40
2018-05-07T10:09:11.195Z,3.30
2018-05-07T10:11:38.584Z,2.50
2018-05-07T10:14:05.903Z,3.03
2018-05-07T10:16:32.772Z,3.10
2018-05-07T10:18:59.673Z,2.70
2018-05-07T10:21:26.520Z,2.27
2018-05-07T10:23:53.796Z,3.30
2018-05-07T10:26:20.691Z,2.70
2018-05-07T10:28:47.530Z,2.30
2018-05-07T10:31:14.661Z,3.00
2018-05-07T10:33:41.548Z,2.50
2018-05-07T10:36:08.497Z,2.67
2018-05-07T10:38:35.337Z,2.73
2018-05-07T10:41:02.577Z,2.40
2018-05-07T10:43:29.833Z,2.60
2018-05-07T10:45:56.687Z,2.70
2018-05-07T10:48:23.686Z,2.70
2018-05-07T10:50:51.180Z,2.63
2018-05-07T10:53:18.420Z,2.60
2018-05-07T10:55:45.681Z,2.80
2018-05-07T10:58:12.946Z,2.67
2018-05-07T11:00:39.838Z,3.43
2018-05-07T11:03:06.694Z,2.73
2018-05-07T11:05:33.545Z,2.60
2018-05-07T11:08:00.407Z,2.70
2018-05-07T11:10:27.261Z,2.57
2018-05-07T11:12:54.541Z,2.83
2018-05-07T11:15:21.386Z,2.80
2018-05-07T11:17:48.361Z,2.67
2018-05-07T11:20:15.222Z,3.03
2018-05-07T11:22:42.082Z,3.03
2018-05-07T11:25:08.935Z,3.10
2018-05-07T11:27:35.870Z,2.60
2018-05-07T11:30:02.784Z,2.50
2018-05-07T11:32:29.656Z,2.70
2018-05-07T11:34:56.661Z,3.50
2018-05-07T11:37:23.538Z,2.70
2018-05-07T11:39:50.378Z,3.00
2018-05-07T11:42:17.238Z,3.13
2018-05-07T11:44:44.179Z,2.50
2018-05-07T11:47:11.419Z,2.50
2018-05-07T11:49:38.726Z,2.27
2018-05-07T11:52:05.671Z,2.60
2018-05-07T11:54:32.549Z,2.63
2018-05-07T11:56:59.381Z,2.90
2018-05-07T11:59:26.249Z,2.60
2018-05-07T12:01:53.208Z,2.27
2018-05-07T12:04:20.061Z,2.20
2018-05-07T12:06:46.919Z,2.70
2018-05-07T12:09:13.879Z,2.70
2018-05-07T12:11:41.091Z,2.10
2018-05-07T12:14:07.961Z,2.60
2018-05-07T12:16:34.830Z,2.77
2018-05-07T12:19:01.720Z,2.53
2018-05-07T12:21:28.570Z,2.40
2018-05-07T12:23:55.417Z,2.30
2018-05-07T12:26:22.363Z,2.10
2018-05-07T12:28:49.610Z,2.43
2018-05-07T12:31:16.475Z,2.37
2018-05-07T12:33:43.312Z,2.47
2018-05-07T12:36:10.641Z,2.60
2018-05-07T12:38:37.486Z,3.10
2018-05-07T12:41:04.323Z,2.70
2018-05-07T12:43:31.613Z,2.40
2018-05-07T12:45:58.462Z,2.60
2018-05-07T12:48:25.782Z,2.43
2018-05-07T12:50:52.632Z,2.80
2018-05-07T12:53:19.567Z,3.00
2018-05-07T12:55:46.516Z,2.83
2018-05-07T12:58:13.386Z,3.30
2018-05-07T13:00:40.222Z,2.80
2018-05-07T13:03:07.189Z,3.40
2018-05-07T13:05:34.444Z,2.70
2018-05-07T13:08:01.683Z,2.87
2018-05-07T13:10:28.603Z,2.30
2018-05-07T13:12:55.628Z,2.40
2018-05-07T13:15:23.065Z,2.40
2018-05-07T13:17:49.917Z,3.00
2018-05-07T13:20:16.765Z,2.23
2018-05-07T13:22:43.627Z,2.53
2018-05-07T13:25:10.557Z,2.40
2018-05-07T13:27:37.421Z,2.50
2018-05-07T13:30:04.287Z,2.50
2018-05-07T13:32:31.137Z,2.43
2018-05-07T13:34:58.076Z,2.13
2018-05-07T13:37:24.921Z,2.80
2018-05-07T13:39:51.842Z,2.33
2018-05-07T13:42:18.738Z,2.20
2018-05-07T13:44:45.596Z,2.33
2018-05-07T13:47:12.445Z,2.37
2018-05-07T13:49:39.310Z,2.17
2018-05-07T13:52:06.156Z,2.60
2018-05-07T13:54:33.031Z,2.63
2018-05-07T13:56:59.964Z,2.13
2018-05-07T13:59:26.721Z,2.10
2018-05-07T14:01:53.596Z,2.37
2018-05-07T14:04:20.446Z,2.60
2018-05-07T14:06:47.424Z,2.53
2018-05-07T14:09:14.286Z,2.37
2018-05-07T14:11:41.125Z,2.20
2018-05-07T14:14:08.106Z,1.87
2018-05-07T14:16:34.981Z,2.30
2018-05-07T14:19:02.033Z,2.40
2018-05-07T14:21:28.874Z,2.60
2018-05-07T14:23:55.738Z,2.13
2018-05-07T14:26:22.581Z,2.00
2018-05-07T14:28:49.587Z,1.80
2018-05-07T14:31:16.428Z,2.27
2018-05-07T14:33:43.276Z,2.50
2018-05-07T14:36:10.214Z,2.00
2018-05-07T14:38:37.053Z,1.90
2018-05-07T14:41:03.911Z,2.13
2018-05-07T14:43:30.755Z,2.00
2018-05-07T14:45:58.023Z,2.23
2018-05-07T14:48:25.265Z,1.90
2018-05-07T14:50:52.650Z,2.07
2018-05-07T14:53:19.886Z,2.00
2018-05-07T14:55:46.881Z,1.93
2018-05-07T14:58:13.666Z,2.13
2018-05-07T15:00:40.531Z,1.50
2018-05-07T15:03:07.675Z,2.37
2018-05-07T15:05:34.540Z,2.17
2018-05-07T15:08:01.402Z,1.70
2018-05-07T15:10:28.415Z,1.53
2018-05-07T15:12:55.297Z,1.97
2018-05-07T15:15:22.533Z,1.80
2018-05-07T15:17:49.428Z,1.80
2018-05-07T15:20:16.662Z,1.90
2018-05-07T15:22:43.602Z,1.97
2018-05-07T15:25:10.458Z,1.80
2018-05-07T15:27:37.394Z,1.53
2018-05-07T15:30:04.243Z,2.40
2018-05-07T15:32:31.183Z,1.80
2018-05-07T15:34:58.425Z,1.93
2018-05-07T15:37:25.742Z,1.77
2018-05-07T15:39:52.683Z,1.80
2018-05-07T15:42:19.611Z,2.00
2018-05-07T15:44:46.489Z,2.50
2018-05-07T15:47:13.476Z,1.73
2018-05-07T15:49:40.410Z,2.00
2018-05-07T15:52:07.890Z,2.10
2018-05-07T15:54:34.736Z,2.53
2018-05-07T15:57:01.574Z,2.43
2018-05-07T15:59:28.966Z,1.80
2018-05-07T16:01:56.258Z,2.10
2018-05-07T16:04:23.113Z,2.10
2018-05-07T16:06:50.047Z,2.33
2018-05-07T16:09:16.923Z,2.10
2018-05-07T16:11:43.762Z,1.87
2018-05-07T16:14:10.713Z,1.93
2018-05-07T16:16:37.635Z,1.97
2018-05-07T16:19:04.635Z,2.00
2018-05-07T16:21:31.849Z,1.80
2018-05-07T16:23:58.781Z,2.03
2018-05-07T16:26:25.696Z,1.90
2018-05-07T16:28:52.591Z,1.87
2018-05-07T16:31:19.697Z,1.73
2018-05-07T16:33:46.507Z,1.97
2018-05-07T16:36:13.363Z,1.93
2018-05-07T16:38:40.323Z,2.13
2018-05-07T16:41:07.280Z,2.20
2018-05-07T16:43:34.221Z,1.83
2018-05-07T16:46:01.106Z,2.40
2018-05-07T16:48:28.029Z,1.37
2018-05-07T16:50:54.813Z,1.63
2018-05-07T16:53:21.763Z,1.57
2018-05-07T16:55:48.678Z,1.20
2018-05-07T16:58:15.587Z,2.30
2018-05-07T17:00:42.444Z,1.70
2018-05-07T17:03:09.304Z,1.90
2018-05-07T17:05:36.183Z,1.90
2018-05-07T17:08:03.117Z,2.03
2018-05-07T17:10:29.995Z,1.80
2018-05-07T17:12:56.935Z,2.03
2018-05-07T17:15:23.787Z,1.53
2018-05-07T17:17:50.627Z,1.90
2018-05-07T17:20:17.514Z,1.53
2018-05-07T17:22:44.374Z,1.60
2018-05-07T17:25:11.311Z,1.67
2018-05-07T17:27:38.373Z,1.50
2018-05-07T17:30:05.292Z,1.83
2018-05-07T17:32:32.064Z,1.63
2018-05-07T17:34:59.320Z,1.73
2018-05-07T17:37:26.633Z,1.90
2018-05-07T17:39:53.503Z,1.60
2018-05-07T17:42:20.452Z,1.70
2018-05-07T17:44:59.252Z,1.63
2018-05-07T17:47:38.610Z,1.70
2018-05-07T17:50:05.578Z,1.57
2018-05-07T17:52:32.537Z,1.77
2018-05-07T17:54:59.404Z,1.60
2018-05-07T17:57:26.269Z,1.97
2018-05-07T17:59:53.301Z,1.90
2018-05-07T18:02:20.068Z,1.73
2018-05-07T18:04:47.029Z,1.70
2018-05-07T18:07:14.246Z,1.67
2018-05-07T18:09:41.107Z,1.77
2018-05-07T18:12:08.028Z,1.80
2018-05-07T18:14:34.901Z,2.23
2018-05-07T18:17:01.747Z,2.63
2018-05-07T18:19:28.616Z,1.80
2018-05-07T18:21:55.510Z,2.10
2018-05-07T18:24:22.571Z,1.70
2018-05-07T18:26:49.823Z,2.60
2018-05-07T18:29:16.675Z,2.03
2018-05-07T18:31:43.531Z,1.93
2018-05-07T18:34:10.373Z,1.80
2018-05-07T18:36:37.305Z,2.10
2018-05-07T18:39:04.169Z,2.43
2018-05-07T18:41:31.010Z,2.13
2018-05-07T18:43:57.887Z,2.10
2018-05-07T18:46:24.737Z,2.17
2018-05-07T18:48:51.626Z,2.20
2018-05-07T18:51:18.508Z,2.40
2018-05-07T18:53:45.811Z,2.23
2018-05-07T18:56:12.761Z,2.13
2018-05-07T18:58:39.620Z,2.40
2018-05-07T19:01:06.484Z,2.50
2018-05-07T19:03:33.437Z,2.43
2018-05-07T19:06:00.287Z,2.80
2018-05-07T19:08:27.155Z,2.43
2018-05-07T19:10:54.184Z,3.00
2018-05-07T19:13:21.521Z,2.90
2018-05-07T19:15:48.458Z,3.30
2018-05-07T19:18:15.306Z,2.73
2018-05-07T19:20:42.372Z,3.83
2018-05-07T19:23:09.203Z,3.10
2018-05-07T19:25:36.221Z,3.10
2018-05-07T19:28:03.024Z,3.10
2018-05-07T19:30:29.864Z,2.87
2018-05-07T19:32:57.121Z,2.60
2018-05-07T19:35:24.420Z,2.50
2018-05-07T19:37:51.338Z,3.00
2018-05-07T19:40:18.229Z,2.80
2018-05-07T19:42:45.070Z,3.20
2018-05-07T19:45:12.359Z,2.90
2018-05-07T19:47:39.206Z,3.00
2018-05-07T19:50:06.098Z,3.10
2018-05-07T19:52:33.169Z,3.07
2018-05-07T19:55:00.100Z,2.77
2018-05-07T19:57:27.418Z,2.50
2018-05-07T19:59:54.371Z,3.07
2018-05-07T20:02:21.551Z,2.63
2018-05-07T20:04:48.867Z,2.50
2018-05-07T20:07:15.809Z,3.00
2018-05-07T20:09:42.757Z,2.90
2018-05-07T20:12:09.698Z,3.10
2018-05-07T20:14:36.465Z,3.00
2018-05-07T20:17:03.717Z,2.60
2018-05-07T20:19:31.005Z,2.87
2018-05-07T20:21:58.297Z,3.03
2018-05-07T20:24:25.202Z,2.90
2018-05-07T20:26:52.073Z,3.10
2018-05-07T20:29:18.945Z,2.90
2018-05-07T20:31:46.189Z,3.50
2018-05-07T20:34:13.033Z,3.10
2018-05-07T20:36:39.955Z,2.90
2018-05-07T20:39:06.903Z,2.90
2018-05-07T20:41:33.761Z,2.90
2018-05-07T20:44:00.623Z,3.50
2018-05-07T20:46:27.487Z,3.77
2018-05-07T21:34:45.792Z,3.40
2018-05-07T21:37:12.649Z,2.70
2018-05-07T21:39:39.510Z,2.90
2018-05-07T21:42:06.366Z,3.30
2018-05-07T21:44:33.215Z,3.27
2018-05-07T21:47:00.068Z,3.20
2018-05-07T21:49:27.034Z,3.10
2018-05-07T21:51:53.922Z,3.20
2018-05-07T21:54:20.868Z,2.80
2018-05-07T21:56:47.712Z,3.30
2018-05-07T21:59:14.626Z,3.43
2018-05-07T22:01:41.913Z,3.50
2018-05-07T22:04:08.774Z,2.87
2018-05-07T22:06:36.083Z,2.73
2018-05-07T22:09:02.923Z,3.00
2018-05-07T22:11:29.784Z,3.07
2018-05-07T22:13:56.647Z,3.37
2018-05-07T22:16:23.504Z,2.80
2018-05-07T22:18:50.358Z,2.83
2018-05-07T22:21:17.236Z,3.00
2018-05-07T22:23:44.075Z,3.07
2018-05-07T22:26:10.951Z,2.93
2018-05-07T22:28:37.815Z,3.00
2018-05-07T22:31:04.673Z,3.03
2018-05-07T22:33:31.603Z,2.83
2018-05-07T22:35:58.464Z,3.20
2018-05-07T22:38:25.428Z,2.90
2018-05-07T22:40:52.389Z,3.30
2018-05-07T22:43:19.248Z,3.00
2018-05-07T22:45:46.162Z,2.93
2018-05-07T22:48:13.027Z,2.73
2018-05-07T22:50:39.885Z,2.70
2018-05-07T22:53:07.126Z,3.00
2018-05-07T22:55:34.367Z,2.90
2018-05-07T22:58:01.292Z,2.87
2018-05-07T23:00:28.136Z,3.17
2018-05-07T23:02:55.013Z,3.20
2018-05-07T23:05:21.956Z,3.27
2018-05-07T23:07:48.821Z,2.83
2018-05-07T23:10:15.759Z,2.97
2018-05-07T23:12:42.986Z,3.10
2018-05-07T23:15:09.827Z,3.13
2018-05-07T23:17:36.680Z,2.90
2018-05-07T23:20:03.604Z,2.70
2018-05-07T23:22:30.464Z,2.97
2018-05-07T23:24:57.437Z,3.20
2018-05-07T23:27:24.397Z,2.83
2018-05-07T23:29:51.233Z,3.50
2018-05-07T23:32:18.109Z,2.80
2018-05-07T23:34:44.967Z,2.80
2018-05-07T23:37:11.859Z,3.07
2018-05-07T23:39:38.727Z,2.97
2018-05-07T23:42:05.961Z,3.00
2018-05-07T23:44:32.805Z,2.80
2018-05-07T23:46:59.747Z,3.00
2018-05-07T23:49:26.726Z,3.33
2018-05-07T23:51:53.569Z,3.07
2018-05-07T23:54:20.529Z,2.90
2018-05-07T23:56:47.390Z,3.27
2018-05-07T23:59:14.241Z,2.80
